createdAt,value
2019-02-26T00:01:14.427Z,3.10
2019-02-26T00:03:42.689Z,3.03
2019-02-26T00:06:12.269Z,3.02
2019-02-26T00:08:42.185Z,2.95
2019-02-26T00:11:11.755Z,2.88
2019-02-26T00:13:41.386Z,2.85
2019-02-26T00:16:12.875Z,2.79
2019-02-26T00:18:42.704Z,2.74
2019-02-26T00:21:12.217Z,2.65
2019-02-26T00:23:42.677Z,2.55
2019-02-26T00:26:15.607Z,2.50
2019-02-26T00:28:45.771Z,2.40
2019-02-26T00:31:15.393Z,2.30
2019-02-26T00:33:44.898Z,2.14
2019-02-26T00:36:15.406Z,2.01
2019-02-26T00:38:44.994Z,1.93
2019-02-26T00:41:14.383Z,1.89
2019-02-26T00:43:43.971Z,1.84
2019-02-26T00:46:13.450Z,1.82
2019-02-26T00:48:43.187Z,1.80
2019-02-26T00:51:13.796Z,1.87
2019-02-26T00:53:43.316Z,1.86
2019-02-26T00:56:12.791Z,1.94
2019-02-26T00:58:43.915Z,2.08
2019-02-26T01:01:15.256Z,2.20
2019-02-26T01:03:46.752Z,2.22
2019-02-26T01:06:15.985Z,2.21
2019-02-26T01:08:47.106Z,2.26
2019-02-26T01:11:16.941Z,2.44
2019-02-26T01:13:50.711Z,2.51
2019-02-26T01:16:20.036Z,2.53
2019-02-26T01:18:51.110Z,2.50
2019-02-26T01:21:24.412Z,2.42
2019-02-26T01:23:52.076Z,2.39
2019-02-26T01:26:21.620Z,2.38
2019-02-26T01:28:53.564Z,2.43
2019-02-26T01:31:24.562Z,2.45
2019-02-26T01:33:55.226Z,2.44
2019-02-26T01:36:25.426Z,2.41
2019-02-26T01:38:55.111Z,2.42
2019-02-26T01:41:25.479Z,2.41
2019-02-26T01:43:55.880Z,2.42
2019-02-26T01:46:25.576Z,2.34
2019-02-26T01:48:57.207Z,2.22
2019-02-26T01:51:28.497Z,2.09
2019-02-26T01:53:57.544Z,2.05
2019-02-26T01:56:27.129Z,2.07
2019-02-26T01:58:59.444Z,2.01
2019-02-26T02:01:28.969Z,1.95
2019-02-26T02:03:58.393Z,2.00
2019-02-26T02:06:29.747Z,2.10
2019-02-26T02:08:59.110Z,2.21
2019-02-26T02:11:31.213Z,2.23
2019-02-26T02:14:01.999Z,2.17
2019-02-26T02:16:33.554Z,2.13
2019-02-26T02:19:03.286Z,2.06
2019-02-26T02:21:35.596Z,2.04
2019-02-26T02:24:05.736Z,2.07
2019-02-26T02:26:36.656Z,2.07
2019-02-26T02:29:06.176Z,2.02
2019-02-26T02:31:37.719Z,2.02
2019-02-26T02:34:06.734Z,2.16
2019-02-26T02:36:36.308Z,2.17
2019-02-26T02:39:10.360Z,2.14
2019-02-26T02:41:39.267Z,2.08
2019-02-26T02:44:12.322Z,1.96
2019-02-26T02:46:42.483Z,1.86
2019-02-26T02:49:13.238Z,1.75
2019-02-26T02:51:43.119Z,1.61
2019-02-26T02:54:15.351Z,1.50
2019-02-26T02:56:44.415Z,1.41
2019-02-26T02:59:14.542Z,1.34
2019-02-26T03:01:46.405Z,1.23
2019-02-26T03:04:19.584Z,1.15
2019-02-26T03:06:47.523Z,1.11
2019-02-26T03:09:19.586Z,1.09
2019-02-26T03:11:49.692Z,1.02
2019-02-26T03:14:19.675Z,0.90
2019-02-26T03:16:51.433Z,0.76
2019-02-26T03:19:20.542Z,0.66
2019-02-26T03:21:52.423Z,0.55
2019-02-26T03:24:24.983Z,0.49
2019-02-26T03:26:52.358Z,0.42
2019-02-26T03:29:21.763Z,0.37
2019-02-26T03:31:54.670Z,0.28
2019-02-26T03:34:25.460Z,0.22
2019-02-26T03:36:53.696Z,0.16
2019-02-26T03:39:23.201Z,0.12
2019-02-26T03:41:53.500Z,0.09
2019-02-26T03:44:24.086Z,0.05
2019-02-26T03:46:53.563Z,-0.01
2019-02-26T03:49:26.375Z,0.02
2019-02-26T03:51:59.260Z,0.02
2019-02-26T03:54:25.583Z,0.06
2019-02-26T03:56:55.133Z,0.13
2019-02-26T03:59:24.718Z,0.25
2019-02-26T04:01:54.338Z,0.35
2019-02-26T04:04:26.162Z,0.34
2019-02-26T04:06:55.900Z,0.34
2019-02-26T04:09:26.427Z,0.37
2019-02-26T04:11:55.877Z,0.36
2019-02-26T04:14:26.385Z,0.34
2019-02-26T04:16:58.684Z,0.32
2019-02-26T04:19:27.928Z,0.30
2019-02-26T04:22:27.619Z,0.34
2019-02-26T04:25:08.247Z,0.49
2019-02-26T04:27:56.371Z,0.71
2019-02-26T04:31:06.304Z,0.76
2019-02-26T04:34:14.405Z,0.71
2019-02-26T04:37:12.694Z,0.71
2019-02-26T04:40:28.398Z,0.66
2019-02-26T04:43:34.169Z,0.56
2019-02-26T04:46:57.266Z,0.48
2019-02-26T04:49:30.144Z,0.57
2019-02-26T04:51:58.910Z,0.82
2019-02-26T04:54:31.213Z,0.86
2019-02-26T04:56:59.570Z,0.93
2019-02-26T04:59:29.922Z,0.87
2019-02-26T05:02:00.442Z,0.92
2019-02-26T05:04:30.752Z,1.01
2019-02-26T05:07:04.406Z,0.98
2019-02-26T05:09:35.216Z,0.88
2019-02-26T05:12:03.880Z,0.75
2019-02-26T05:14:33.334Z,0.63
2019-02-26T05:17:02.951Z,0.55
2019-02-26T05:19:32.568Z,0.49
2019-02-26T05:22:04.338Z,0.43
2019-02-26T05:24:33.393Z,0.38
2019-02-26T05:27:12.459Z,0.35
2019-02-26T05:29:46.652Z,0.37
2019-02-26T05:32:15.194Z,0.40
2019-02-26T05:34:45.943Z,0.40
2019-02-26T05:37:16.067Z,0.38
2019-02-26T05:39:46.838Z,0.36
2019-02-26T05:42:16.857Z,0.37
2019-02-26T05:44:46.454Z,0.37
2019-02-26T05:47:18.804Z,0.32
2019-02-26T05:49:47.262Z,0.22
2019-02-26T05:52:16.806Z,0.24
2019-02-26T05:54:46.459Z,0.26
2019-02-26T05:57:27.154Z,0.20
2019-02-26T05:59:47.268Z,0.10
2019-02-26T06:02:19.153Z,0.04
2019-02-26T06:04:47.967Z,0.08
2019-02-26T06:07:21.707Z,0.12
2019-02-26T06:09:51.002Z,0.13
2019-02-26T06:12:20.129Z,0.10
2019-02-26T06:14:51.478Z,0.11
2019-02-26T06:17:20.931Z,0.11
2019-02-26T06:19:50.993Z,0.11
2019-02-26T06:22:23.641Z,0.07
2019-02-26T06:24:54.950Z,0.04
2019-02-26T06:27:25.192Z,0.02
2019-02-26T06:29:57.286Z,0.05
2019-02-26T06:32:29.912Z,0.13
2019-02-26T06:34:56.818Z,0.20
2019-02-26T06:37:28.444Z,0.33
2019-02-26T06:39:59.810Z,0.45
2019-02-26T06:42:31.545Z,0.51
2019-02-26T06:45:00.348Z,0.54
2019-02-26T06:47:31.028Z,0.57
2019-02-26T06:50:02.966Z,0.55
2019-02-26T06:52:35.084Z,0.52
2019-02-26T06:55:05.957Z,0.50
2019-02-26T06:57:35.585Z,0.49
2019-02-26T07:00:05.715Z,0.49
2019-02-26T07:02:35.274Z,0.49
2019-02-26T07:05:05.238Z,0.52
2019-02-26T07:07:34.804Z,0.56
2019-02-26T07:10:04.434Z,0.56
2019-02-26T07:12:34.047Z,0.62
2019-02-26T07:15:03.566Z,0.75
2019-02-26T07:17:34.308Z,0.88
2019-02-26T07:20:04.540Z,1.03
2019-02-26T07:22:34.059Z,1.15
2019-02-26T07:25:03.596Z,1.21
2019-02-26T07:27:34.203Z,1.31
2019-02-26T07:30:04.546Z,1.42
2019-02-26T07:32:35.912Z,1.57
2019-02-26T07:35:08.172Z,1.71
2019-02-26T07:37:38.121Z,1.81
2019-02-26T07:40:11.079Z,1.93
2019-02-26T07:42:41.520Z,2.05
2019-02-26T07:45:15.057Z,2.16
2019-02-26T07:47:44.984Z,2.28
2019-02-26T07:50:14.950Z,2.42
2019-02-26T07:52:47.215Z,2.56
2019-02-26T07:55:17.472Z,2.71
2019-02-26T07:57:50.238Z,2.84
2019-02-26T08:00:24.094Z,3.03
2019-02-26T08:03:12.600Z,3.21
2019-02-26T08:05:43.466Z,3.38
2019-02-26T08:08:14.378Z,3.56
2019-02-26T08:10:45.359Z,3.76
2019-02-26T08:13:15.644Z,3.91
2019-02-26T08:15:45.123Z,4.03
2019-02-26T08:18:15.035Z,4.13
2019-02-26T08:20:44.542Z,4.20
2019-02-26T08:23:14.871Z,4.29
2019-02-26T08:25:45.397Z,4.38
2019-02-26T08:28:15.439Z,4.45
2019-02-26T08:30:47.388Z,4.52
2019-02-26T08:33:17.393Z,4.59
2019-02-26T08:35:47.194Z,4.68
2019-02-26T08:38:16.734Z,4.81
2019-02-26T08:40:46.721Z,4.93
2019-02-26T08:43:16.273Z,5.11
2019-02-26T08:45:45.736Z,5.28
2019-02-26T08:48:17.217Z,5.39
2019-02-26T08:50:46.690Z,5.51
2019-02-26T08:53:19.734Z,5.62
2019-02-26T08:55:51.564Z,5.77
2019-02-26T08:58:23.475Z,5.93
2019-02-26T09:00:52.925Z,6.17
2019-02-26T09:03:22.607Z,6.30
2019-02-26T09:05:53.836Z,6.39
2019-02-26T09:08:23.286Z,6.48
2019-02-26T09:10:52.785Z,6.54
2019-02-26T09:13:22.319Z,6.60
2019-02-26T09:15:51.774Z,6.69
2019-02-26T09:18:24.616Z,6.79
2019-02-26T09:20:52.538Z,6.93
2019-02-26T09:23:23.945Z,7.06
2019-02-26T09:25:56.998Z,7.27
2019-02-26T09:28:27.164Z,7.57
2019-02-26T09:31:01.029Z,7.69
2019-02-26T09:33:32.634Z,7.87
2019-02-26T09:35:59.338Z,8.05
2019-02-26T09:38:28.815Z,8.14
2019-02-26T09:40:58.355Z,8.16
2019-02-26T09:43:28.115Z,8.22
2019-02-26T09:45:57.637Z,8.23
2019-02-26T09:48:27.178Z,8.20
2019-02-26T09:50:56.657Z,8.24
2019-02-26T09:53:26.334Z,8.33
2019-02-26T09:55:55.814Z,8.48
2019-02-26T09:58:25.423Z,8.52
2019-02-26T10:00:54.948Z,8.52
2019-02-26T10:03:24.554Z,8.56
2019-02-26T10:05:55.891Z,8.61
2019-02-26T10:08:27.216Z,8.68
2019-02-26T10:10:57.847Z,8.76
2019-02-26T10:13:27.915Z,8.85
2019-02-26T10:15:59.257Z,8.95
2019-02-26T10:18:30.971Z,9.07
2019-02-26T10:21:00.064Z,9.16
2019-02-26T10:23:33.000Z,9.27
2019-02-26T10:26:03.461Z,9.38
2019-02-26T10:28:35.235Z,9.50
2019-02-26T10:31:06.808Z,9.69
2019-02-26T10:33:37.927Z,9.97
2019-02-26T10:36:08.458Z,10.31
2019-02-26T10:38:38.425Z,10.56
2019-02-26T10:41:07.997Z,10.79
2019-02-26T10:43:37.518Z,10.98
2019-02-26T10:46:07.035Z,11.05
2019-02-26T10:48:36.502Z,11.20
2019-02-26T10:51:07.217Z,11.28
2019-02-26T10:53:36.909Z,11.39
2019-02-26T10:56:06.465Z,11.44
2019-02-26T10:58:36.045Z,11.48
2019-02-26T11:01:06.378Z,11.45
2019-02-26T11:03:40.871Z,11.45
2019-02-26T11:06:09.908Z,11.52
2019-02-26T11:08:38.583Z,11.74
2019-02-26T11:11:09.899Z,11.85
2019-02-26T11:13:42.242Z,11.80
2019-02-26T11:16:10.768Z,11.99
2019-02-26T11:18:42.554Z,12.22
2019-02-26T11:21:11.485Z,12.36
2019-02-26T11:23:41.990Z,12.51
2019-02-26T11:26:13.156Z,12.48
2019-02-26T11:28:45.892Z,12.60
2019-02-26T11:31:16.549Z,12.79
2019-02-26T11:33:48.087Z,13.09
2019-02-26T11:36:17.706Z,13.36
2019-02-26T11:38:47.184Z,13.42
2019-02-26T11:41:16.645Z,13.51
2019-02-26T11:43:46.125Z,13.47
2019-02-26T11:46:15.685Z,13.31
2019-02-26T11:48:47.510Z,13.12
2019-02-26T11:51:17.370Z,13.01
2019-02-26T11:53:47.689Z,13.00
2019-02-26T11:56:17.729Z,13.00
2019-02-26T11:58:48.608Z,13.10
2019-02-26T12:01:18.608Z,13.29
2019-02-26T12:03:48.246Z,13.45
2019-02-26T12:06:17.722Z,13.55
2019-02-26T12:08:49.918Z,13.68
2019-02-26T12:11:20.334Z,14.03
2019-02-26T12:13:53.010Z,14.34
2019-02-26T12:16:21.966Z,14.43
2019-02-26T12:18:51.538Z,14.46
2019-02-26T12:21:21.136Z,14.45
2019-02-26T12:23:50.707Z,14.46
2019-02-26T12:26:22.177Z,14.57
2019-02-26T12:28:52.418Z,14.59
2019-02-26T12:31:25.330Z,14.56
2019-02-26T12:33:54.924Z,14.79
2019-02-26T12:36:26.453Z,14.92
2019-02-26T12:38:56.423Z,14.97
2019-02-26T12:41:26.922Z,15.04
2019-02-26T12:43:59.350Z,15.18
2019-02-26T12:46:30.930Z,15.17
2019-02-26T12:48:58.980Z,15.30
2019-02-26T12:51:31.739Z,15.51
2019-02-26T12:54:01.202Z,15.82
2019-02-26T12:56:34.012Z,16.12
2019-02-26T12:59:02.320Z,16.25
2019-02-26T13:01:33.303Z,16.34
2019-02-26T13:04:03.048Z,16.36
2019-02-26T13:06:34.304Z,16.48
2019-02-26T13:09:04.526Z,16.53
2019-02-26T13:11:34.080Z,16.68
2019-02-26T13:14:04.225Z,16.75
2019-02-26T13:16:33.684Z,16.75
2019-02-26T13:19:04.573Z,16.76
2019-02-26T13:21:34.464Z,16.93
2019-02-26T13:24:11.678Z,17.15
2019-02-26T13:26:36.501Z,17.22
2019-02-26T13:29:06.459Z,17.29
2019-02-26T13:34:13.682Z,17.29
2019-02-26T13:36:39.698Z,17.38
2019-02-26T13:39:09.664Z,17.50
2019-02-26T13:41:39.310Z,17.65
2019-02-26T13:44:08.753Z,17.77
2019-02-26T13:46:38.406Z,17.86
2019-02-26T13:49:07.875Z,17.85
2019-02-26T13:51:37.342Z,17.88
2019-02-26T13:54:07.963Z,17.97
2019-02-26T13:56:38.453Z,19.12
2019-02-26T13:59:08.047Z,21.85
2019-02-26T14:01:37.567Z,24.57
2019-02-26T14:04:07.326Z,26.48
2019-02-26T14:06:37.013Z,27.89
2019-02-26T14:09:07.164Z,29.24
2019-02-26T14:11:36.664Z,30.23
2019-02-26T14:14:06.265Z,31.29
2019-02-26T14:16:35.820Z,31.72
2019-02-26T14:19:05.763Z,32.46
2019-02-26T14:21:35.323Z,32.91
2019-02-26T14:24:04.778Z,33.43
2019-02-26T14:26:34.425Z,33.79
2019-02-26T14:29:03.972Z,34.10
2019-02-26T14:31:33.433Z,34.15
2019-02-26T14:34:02.874Z,34.00
2019-02-26T14:36:32.617Z,33.79
2019-02-26T14:39:02.306Z,33.30
2019-02-26T14:41:31.752Z,33.01
2019-02-26T14:44:01.336Z,32.45
2019-02-26T14:46:31.014Z,32.94
2019-02-26T14:49:00.499Z,32.47
2019-02-26T14:51:30.077Z,32.41
2019-02-26T14:53:59.632Z,32.40
2019-02-26T14:56:29.159Z,32.48
2019-02-26T14:58:58.739Z,32.53
2019-02-26T15:01:28.246Z,32.30
2019-02-26T15:03:57.957Z,32.50
2019-02-26T15:06:27.447Z,32.17
2019-02-26T15:08:56.972Z,32.09
2019-02-26T15:11:26.506Z,31.89
2019-02-26T15:13:56.044Z,32.06
2019-02-26T15:16:25.588Z,32.01
2019-02-26T15:18:55.092Z,31.53
2019-02-26T15:21:24.582Z,30.95
2019-02-26T15:23:54.122Z,30.81
2019-02-26T15:26:23.787Z,30.75
2019-02-26T15:28:53.461Z,30.71
2019-02-26T15:31:22.919Z,30.60
2019-02-26T15:33:52.544Z,30.16
2019-02-26T15:36:22.118Z,29.80
2019-02-26T15:38:51.782Z,29.42
2019-02-26T15:41:21.270Z,28.89
2019-02-26T15:43:50.776Z,28.34
2019-02-26T15:46:20.941Z,28.02
2019-02-26T15:48:50.479Z,27.78
2019-02-26T15:51:20.694Z,27.62
2019-02-26T15:53:50.780Z,27.66
2019-02-26T15:56:21.826Z,27.44
2019-02-26T15:58:51.364Z,26.76
2019-02-26T16:01:20.944Z,25.80
2019-02-26T16:03:50.508Z,24.87
2019-02-26T16:06:20.124Z,24.35
2019-02-26T16:08:49.745Z,24.16
2019-02-26T16:11:19.252Z,23.71
2019-02-26T16:13:48.864Z,23.18
2019-02-26T16:16:18.552Z,22.42
2019-02-26T16:18:48.556Z,21.38
2019-02-26T16:21:19.349Z,20.12
2019-02-26T16:23:49.087Z,18.95
2019-02-26T16:26:19.069Z,17.83
2019-02-26T16:28:48.768Z,16.87
2019-02-26T16:31:18.625Z,16.03
2019-02-26T16:33:48.540Z,15.26
2019-02-26T16:36:18.563Z,14.58
2019-02-26T16:38:51.367Z,14.14
2019-02-26T16:41:19.625Z,13.71
2019-02-26T16:43:51.841Z,13.21
2019-02-26T16:46:21.352Z,12.73
2019-02-26T16:48:53.118Z,12.31
2019-02-26T16:51:22.831Z,11.99
2019-02-26T16:53:53.534Z,11.63
2019-02-26T16:56:23.346Z,11.26
2019-02-26T16:58:53.467Z,10.91
2019-02-26T17:01:23.313Z,10.59
2019-02-26T17:03:53.293Z,10.29
2019-02-26T17:06:23.418Z,10.04
2019-02-26T17:08:53.419Z,9.80
2019-02-26T17:11:24.078Z,9.53
2019-02-26T17:13:53.867Z,9.34
2019-02-26T17:16:23.833Z,9.19
2019-02-26T17:18:53.987Z,8.94
2019-02-26T17:21:24.096Z,8.69
2019-02-26T17:23:54.963Z,8.47
2019-02-26T17:26:24.962Z,8.24
2019-02-26T17:28:55.059Z,8.03
2019-02-26T17:31:25.097Z,7.86
2019-02-26T17:33:55.173Z,7.77
2019-02-26T17:36:24.866Z,7.63
2019-02-26T17:38:56.521Z,7.57
2019-02-26T17:41:27.058Z,7.47
2019-02-26T17:43:59.607Z,7.34
2019-02-26T17:46:28.860Z,7.20
2019-02-26T17:49:02.667Z,7.02
2019-02-26T17:51:32.518Z,6.85
2019-02-26T17:54:04.020Z,6.74
2019-02-26T17:56:34.587Z,6.70
2019-02-26T17:59:05.942Z,6.57
2019-02-26T18:01:36.991Z,6.46
2019-02-26T18:04:08.603Z,6.48
2019-02-26T18:06:38.696Z,6.51
2019-02-26T18:09:08.575Z,6.48
2019-02-26T18:11:38.755Z,6.50
2019-02-26T18:14:08.859Z,6.55
2019-02-26T18:16:41.589Z,6.57
2019-02-26T18:19:13.031Z,6.53
2019-02-26T18:21:44.183Z,6.45
2019-02-26T18:24:16.739Z,6.39
2019-02-26T18:26:48.250Z,6.28
2019-02-26T18:29:18.443Z,6.15
2019-02-26T18:31:50.136Z,5.97
2019-02-26T18:34:20.630Z,5.83
2019-02-26T18:36:50.827Z,5.79
2019-02-26T18:39:22.540Z,5.89
2019-02-26T18:41:54.410Z,5.87
2019-02-26T18:44:33.086Z,5.76
2019-02-26T18:47:24.156Z,5.69
2019-02-26T18:49:55.542Z,5.72
2019-02-26T18:52:26.892Z,5.82
2019-02-26T18:54:56.849Z,5.76
2019-02-26T18:57:28.069Z,5.62
2019-02-26T19:00:00.986Z,5.45
2019-02-26T19:02:33.535Z,5.37
2019-02-26T19:05:06.488Z,5.29
2019-02-26T19:07:36.687Z,5.18
2019-02-26T19:10:08.868Z,5.08
2019-02-26T19:12:39.569Z,5.02
2019-02-26T19:15:14.802Z,5.01
2019-02-26T19:17:53.159Z,5.00
2019-02-26T19:20:27.038Z,4.98
2019-02-26T19:22:59.460Z,4.92
2019-02-26T19:25:32.275Z,4.92
2019-02-26T19:28:04.100Z,4.90
2019-02-26T19:30:37.601Z,4.81
2019-02-26T19:33:08.807Z,4.74
2019-02-26T19:35:40.634Z,4.70
2019-02-26T19:38:13.549Z,4.71
2019-02-26T19:40:44.549Z,4.66
2019-02-26T19:43:17.158Z,4.57
2019-02-26T19:45:50.218Z,4.50
2019-02-26T19:48:23.649Z,4.56
2019-02-26T19:50:54.369Z,4.63
2019-02-26T19:53:24.660Z,4.64
2019-02-26T19:55:54.867Z,4.59
2019-02-26T19:58:25.009Z,4.47
2019-02-26T20:00:57.385Z,4.34
2019-02-26T20:03:39.090Z,4.23
2019-02-26T20:06:00.039Z,4.17
2019-02-26T20:08:50.652Z,4.14
2019-02-26T20:11:24.151Z,4.09
2019-02-26T20:14:04.343Z,4.07
2019-02-26T20:16:33.009Z,4.09
2019-02-26T20:19:06.987Z,4.11
2019-02-26T20:21:38.585Z,4.10
2019-02-26T20:24:09.685Z,4.09
2019-02-26T20:26:40.774Z,4.08
2019-02-26T20:29:14.646Z,4.08
2019-02-26T20:31:46.430Z,4.08
2019-02-26T20:34:16.564Z,4.05
2019-02-26T20:36:48.764Z,4.01
2019-02-26T20:39:19.279Z,3.98
2019-02-26T20:41:49.386Z,3.96
2019-02-26T20:44:20.946Z,3.92
2019-02-26T20:46:55.697Z,3.94
2019-02-26T20:49:27.374Z,3.93
2019-02-26T20:52:00.244Z,3.82
2019-02-26T20:54:32.873Z,3.79
2019-02-26T20:57:05.365Z,3.75
2019-02-26T20:59:36.582Z,3.74
2019-02-26T21:02:10.895Z,3.76
2019-02-26T21:04:44.299Z,3.76
2019-02-26T21:07:15.291Z,3.74
2019-02-26T21:09:46.744Z,3.74
2019-02-26T21:12:18.730Z,3.80
2019-02-26T21:14:49.996Z,3.81
2019-02-26T21:17:25.590Z,3.84
2019-02-26T21:19:59.216Z,3.84
2019-02-26T21:22:30.276Z,3.87
2019-02-26T21:25:04.793Z,3.90
2019-02-26T21:27:37.591Z,3.90
2019-02-26T21:30:11.876Z,3.88
2019-02-26T21:32:40.191Z,3.87
2019-02-26T21:35:11.958Z,3.89
2019-02-26T21:37:42.899Z,3.89
2019-02-26T21:40:16.333Z,3.96
2019-02-26T21:42:47.060Z,3.94
2019-02-26T21:45:20.146Z,3.81
2019-02-26T21:47:50.491Z,3.68
2019-02-26T21:50:22.904Z,3.55
2019-02-26T21:53:00.963Z,3.53
2019-02-26T21:55:27.958Z,3.50
2019-02-26T21:57:58.787Z,3.47
2019-02-26T22:00:29.568Z,3.48
2019-02-26T22:02:59.278Z,3.42
2019-02-26T22:05:29.017Z,3.30
2019-02-26T22:07:58.715Z,3.26
2019-02-26T22:10:28.929Z,3.30
2019-02-26T22:12:59.897Z,3.38
2019-02-26T22:15:34.032Z,3.43
2019-02-26T22:18:05.795Z,3.42
2019-02-26T22:20:36.449Z,3.38
2019-02-26T22:23:06.333Z,3.33
2019-02-26T22:25:37.595Z,3.29
2019-02-26T22:28:10.303Z,3.30
2019-02-26T22:30:42.270Z,3.40
2019-02-26T22:33:17.990Z,3.49
2019-02-26T22:35:51.551Z,3.53
2019-02-26T22:38:21.115Z,3.46
2019-02-26T22:40:51.608Z,3.47
2019-02-26T22:43:38.556Z,3.45
2019-02-26T22:46:09.176Z,3.43
2019-02-26T22:48:40.457Z,3.42
2019-02-26T22:51:10.937Z,3.42
2019-02-26T22:53:40.525Z,3.41
2019-02-26T22:56:15.356Z,3.40
2019-02-26T22:58:48.097Z,3.32
2019-02-26T23:01:42.578Z,3.28
2019-02-26T23:04:13.777Z,3.19
2019-02-26T23:06:44.328Z,3.06
2019-02-26T23:09:18.366Z,2.95
2019-02-26T23:11:48.111Z,2.90
2019-02-26T23:14:17.867Z,2.91
2019-02-26T23:16:51.638Z,2.89
2019-02-26T23:19:18.931Z,2.82
2019-02-26T23:21:49.958Z,2.72
2019-02-26T23:24:20.111Z,2.66
2019-02-26T23:26:50.737Z,2.62
2019-02-26T23:29:27.784Z,2.61
2019-02-26T23:32:03.668Z,2.56
2019-02-26T23:34:38.435Z,2.49
2019-02-26T23:37:09.409Z,2.38
2019-02-26T23:39:41.119Z,2.27
2019-02-26T23:42:17.560Z,2.22
2019-02-26T23:44:51.118Z,2.27
2019-02-26T23:47:24.657Z,2.33
2019-02-26T23:49:59.336Z,2.35
2019-02-26T23:52:29.948Z,2.38
2019-02-26T23:55:00.586Z,2.42
2019-02-26T23:57:30.275Z,2.41
2019-02-26T23:59:59.848Z,2.37
